createdAt,value
2016-08-06T00:00:44.333Z,62.87
2016-08-06T00:01:12.002Z,62.89
2016-08-06T00:02:42.625Z,62.87
2016-08-06T00:03:40.526Z,62.90
2016-08-06T00:04:15.532Z,62.89
2016-08-06T00:05:32.398Z,62.90
2016-08-06T00:06:26.768Z,62.88
2016-08-06T00:07:44.258Z,62.89
2016-08-06T00:08:27.667Z,62.88
2016-08-06T00:09:32.968Z,62.85
2016-08-06T00:10:31.758Z,62.86
2016-08-06T00:11:26.549Z,62.88
2016-08-06T00:12:29.133Z,62.84
2016-08-06T00:13:42.718Z,62.85
2016-08-06T00:14:33.243Z,62.88
2016-08-06T00:15:41.723Z,62.87
2016-08-06T00:16:45.531Z,62.89
2016-08-06T00:17:23.346Z,62.86
2016-08-06T00:18:44.917Z,62.83
2016-08-06T00:19:24.709Z,62.87
2016-08-06T00:20:44.552Z,62.88
2016-08-06T00:21:31.855Z,62.90
2016-08-06T00:22:41.006Z,62.89
2016-08-06T00:23:34.791Z,62.88
2016-08-06T00:24:40.133Z,62.89
2016-08-06T00:25:20.828Z,62.85
2016-08-06T00:26:44.671Z,62.84
2016-08-06T00:27:32.383Z,62.86
2016-08-06T00:28:38.389Z,62.85
2016-08-06T00:29:39.347Z,62.84
2016-08-06T00:30:46.004Z,62.85
2016-08-06T00:31:38.333Z,62.85
2016-08-06T00:32:41.018Z,62.83
2016-08-06T00:33:15.317Z,62.83
2016-08-06T00:34:44.331Z,62.82
2016-08-06T00:35:25.152Z,62.81
2016-08-06T00:36:35.839Z,62.80
2016-08-06T00:37:28.786Z,62.79
2016-08-06T00:38:45.212Z,62.79
2016-08-06T00:39:40.881Z,62.82
2016-08-06T00:40:45.204Z,62.77
2016-08-06T00:41:44.341Z,62.77
2016-08-06T00:42:23.072Z,62.80
2016-08-06T00:43:23.047Z,62.75
2016-08-06T00:44:13.933Z,62.76
2016-08-06T00:45:12.202Z,62.79
2016-08-06T00:46:13.235Z,62.78
2016-08-06T00:47:34.294Z,62.77
2016-08-06T00:48:40.115Z,62.81
2016-08-06T00:49:28.015Z,62.78
2016-08-06T00:50:32.247Z,62.81
2016-08-06T00:51:30.917Z,62.77
2016-08-06T00:52:38.953Z,62.79
2016-08-06T00:53:26.515Z,62.78
2016-08-06T00:54:26.774Z,62.77
2016-08-06T00:55:37.881Z,62.77
2016-08-06T00:56:40.110Z,62.80
2016-08-06T00:57:31.609Z,62.78
2016-08-06T00:58:20.561Z,62.78
2016-08-06T00:59:38.710Z,62.76
2016-08-06T01:00:37.822Z,62.80
2016-08-06T01:01:15.499Z,62.79
2016-08-06T01:02:46.201Z,62.79
2016-08-06T01:03:30.285Z,62.78
2016-08-06T01:04:43.059Z,62.80
2016-08-06T01:05:29.572Z,62.78
2016-08-06T01:06:43.087Z,62.76
2016-08-06T01:07:14.026Z,62.74
2016-08-06T01:08:37.737Z,62.74
2016-08-06T01:09:17.253Z,62.74
2016-08-06T01:10:37.037Z,62.72
2016-08-06T01:11:43.881Z,62.71
2016-08-06T01:12:33.881Z,62.75
2016-08-06T01:13:39.656Z,62.72
2016-08-06T01:14:19.300Z,62.72
2016-08-06T01:16:19.631Z,62.69
2016-08-06T01:17:17.415Z,62.72
2016-08-06T01:18:32.243Z,62.69
2016-08-06T01:19:25.640Z,62.69
2016-08-06T01:20:38.777Z,62.71
2016-08-06T01:21:38.366Z,62.67
2016-08-06T01:22:20.475Z,62.69
2016-08-06T01:23:14.175Z,62.67
2016-08-06T01:24:15.879Z,62.67
2016-08-06T01:25:42.402Z,62.69
2016-08-06T01:26:28.708Z,62.66
2016-08-06T01:27:29.993Z,62.67
2016-08-06T01:28:30.505Z,62.66
2016-08-06T01:29:40.804Z,62.66
2016-08-06T01:30:44.787Z,62.66
2016-08-06T01:31:27.438Z,62.65
2016-08-06T01:32:43.128Z,62.65
2016-08-06T01:33:13.548Z,62.65
2016-08-06T01:34:14.014Z,62.65
2016-08-06T01:35:37.583Z,62.67
2016-08-06T01:36:42.800Z,62.66
2016-08-06T01:37:14.106Z,62.64
2016-08-06T01:38:39.255Z,62.63
2016-08-06T01:39:43.127Z,62.62
2016-08-06T01:40:47.297Z,62.61
2016-08-06T01:41:43.139Z,62.61
2016-08-06T01:42:36.633Z,62.62
2016-08-06T01:43:37.418Z,62.58
2016-08-06T01:44:13.641Z,62.59
2016-08-06T01:45:37.928Z,62.57
2016-08-06T01:46:20.461Z,62.57
2016-08-06T01:47:42.157Z,62.57
2016-08-06T01:48:20.328Z,62.56
2016-08-06T01:49:19.961Z,62.57
2016-08-06T01:50:38.652Z,62.56
2016-08-06T01:51:33.231Z,62.58
2016-08-06T01:52:32.114Z,62.56
2016-08-06T01:53:43.120Z,62.55
2016-08-06T01:54:43.028Z,62.52
2016-08-06T01:55:39.370Z,62.52
2016-08-06T01:56:28.448Z,62.55
2016-08-06T01:57:44.428Z,62.53
2016-08-06T01:58:42.277Z,62.53
2016-08-06T01:59:37.690Z,62.56
2016-08-06T02:00:32.996Z,62.52
2016-08-06T02:01:38.490Z,62.57
2016-08-06T02:02:43.798Z,62.54
2016-08-06T02:03:36.435Z,62.53
2016-08-06T02:04:22.793Z,62.53
2016-08-06T02:05:39.428Z,62.54
2016-08-06T02:06:34.520Z,62.51
2016-08-06T02:07:41.134Z,62.51
2016-08-06T02:08:42.753Z,62.53
2016-08-06T02:09:38.076Z,62.51
2016-08-06T02:10:33.260Z,62.49
2016-08-06T02:11:38.613Z,62.51
2016-08-06T02:12:39.868Z,62.34
2016-08-06T02:13:29.915Z,61.54
2016-08-06T02:14:40.606Z,61.59
2016-08-06T02:16:34.434Z,62.32
2016-08-06T02:17:38.365Z,62.38
2016-08-06T02:18:37.886Z,62.41
2016-08-06T02:19:46.633Z,62.44
2016-08-06T02:20:33.782Z,62.43
2016-08-06T02:21:44.120Z,62.44
2016-08-06T02:22:47.271Z,62.42
2016-08-06T02:23:39.948Z,62.46
2016-08-06T02:24:47.940Z,62.42
2016-08-06T02:25:38.537Z,62.42
2016-08-06T02:26:30.721Z,62.41
2016-08-06T02:27:25.872Z,62.44
2016-08-06T02:28:42.948Z,62.40
2016-08-06T02:29:21.739Z,62.41
2016-08-06T02:30:16.810Z,62.41
2016-08-06T02:31:32.360Z,62.41
2016-08-06T02:32:43.249Z,62.39
2016-08-06T02:33:38.643Z,62.41
2016-08-06T02:34:39.373Z,62.40
2016-08-06T02:35:34.441Z,62.38
2016-08-06T02:36:30.754Z,62.35
2016-08-06T02:37:28.689Z,62.33
2016-08-06T02:38:36.699Z,62.35
2016-08-06T02:39:42.284Z,62.32
2016-08-06T02:40:33.609Z,62.31
2016-08-06T02:41:29.192Z,62.33
2016-08-06T02:42:38.005Z,62.32
2016-08-06T02:43:49.239Z,62.33
2016-08-06T02:44:37.094Z,62.34
2016-08-06T02:46:14.271Z,62.34
2016-08-06T02:47:37.482Z,62.28
2016-08-06T02:48:43.861Z,62.28
2016-08-06T02:49:21.351Z,62.28
2016-08-06T02:50:33.040Z,62.29
2016-08-06T02:51:40.644Z,62.34
2016-08-06T02:52:37.346Z,62.32
2016-08-06T02:53:43.830Z,62.34
2016-08-06T02:54:49.358Z,62.32
2016-08-06T02:55:43.640Z,62.32
2016-08-06T02:56:44.329Z,62.29
2016-08-06T02:57:14.823Z,62.29
2016-08-06T02:58:39.052Z,62.29
2016-08-06T02:59:26.511Z,62.31
2016-08-06T03:00:25.186Z,62.27
2016-08-06T03:01:28.367Z,62.31
2016-08-06T03:02:36.312Z,62.37
2016-08-06T03:03:23.076Z,62.33
2016-08-06T03:04:32.306Z,62.30
2016-08-06T03:05:46.279Z,62.18
2016-08-06T03:06:28.718Z,61.37
2016-08-06T03:07:15.071Z,61.13
2016-08-06T03:08:35.866Z,61.23
2016-08-06T03:09:44.878Z,61.99
2016-08-06T03:10:42.932Z,62.16
2016-08-06T03:11:37.775Z,62.21
2016-08-06T03:12:25.160Z,62.27
2016-08-06T03:13:43.687Z,62.29
2016-08-06T03:14:27.029Z,62.28
2016-08-06T03:15:20.114Z,62.27
2016-08-06T03:16:16.055Z,62.28
2016-08-06T03:17:31.206Z,62.30
2016-08-06T03:18:40.598Z,62.30
2016-08-06T03:19:31.788Z,62.30
2016-08-06T03:20:32.971Z,62.35
2016-08-06T03:21:19.775Z,62.32
2016-08-06T03:22:17.590Z,62.34
2016-08-06T03:23:37.807Z,62.34
2016-08-06T03:24:26.888Z,62.35
2016-08-06T03:25:40.117Z,62.36
2016-08-06T03:26:30.237Z,62.39
2016-08-06T03:27:44.712Z,62.42
2016-08-06T03:28:31.637Z,62.41
2016-08-06T03:29:35.412Z,62.42
2016-08-06T03:30:44.249Z,62.42
2016-08-06T03:31:37.252Z,62.42
2016-08-06T03:32:36.961Z,62.45
2016-08-06T03:33:21.283Z,62.45
2016-08-06T03:34:34.053Z,62.46
2016-08-06T03:35:30.846Z,62.50
2016-08-06T03:36:37.722Z,62.52
2016-08-06T03:37:44.007Z,62.50
2016-08-06T03:38:39.375Z,62.50
2016-08-06T03:39:39.611Z,62.49
2016-08-06T03:40:38.997Z,62.49
2016-08-06T03:41:26.826Z,62.52
2016-08-06T03:42:28.731Z,62.51
2016-08-06T03:43:44.582Z,62.54
2016-08-06T03:44:50.653Z,62.54
2016-08-06T03:45:15.325Z,62.54
2016-08-06T03:46:43.577Z,62.56
2016-08-06T03:47:26.689Z,62.56
2016-08-06T03:48:42.968Z,62.58
2016-08-06T03:49:22.166Z,62.57
2016-08-06T03:50:21.347Z,62.58
2016-08-06T03:51:24.314Z,62.59
2016-08-06T03:52:34.628Z,62.60
2016-08-06T03:53:26.459Z,62.61
2016-08-06T03:54:21.899Z,62.60
2016-08-06T03:55:41.311Z,62.61
2016-08-06T03:56:36.414Z,62.63
2016-08-06T03:57:35.792Z,62.62
2016-08-06T03:58:25.535Z,62.64
2016-08-06T03:59:32.912Z,62.63
2016-08-06T04:00:46.461Z,62.65
2016-08-06T04:01:42.990Z,62.65
2016-08-06T04:02:26.728Z,62.66
2016-08-06T04:03:42.537Z,62.66
2016-08-06T04:04:35.670Z,62.67
2016-08-06T04:05:20.382Z,62.69
2016-08-06T04:06:43.688Z,62.70
2016-08-06T04:07:39.741Z,62.70
2016-08-06T04:08:26.223Z,62.69
2016-08-06T04:09:26.480Z,61.69
2016-08-06T04:10:43.028Z,62.48
2016-08-06T04:11:38.070Z,62.61
2016-08-06T04:12:27.495Z,62.67
2016-08-06T04:13:29.831Z,62.70
2016-08-06T04:14:33.596Z,62.70
2016-08-06T04:15:32.857Z,62.72
2016-08-06T04:16:23.159Z,62.72
2016-08-06T04:17:14.963Z,62.73
2016-08-06T04:18:43.010Z,62.76
2016-08-06T04:19:32.407Z,62.76
2016-08-06T04:20:26.108Z,62.74
2016-08-06T04:21:29.926Z,62.74
2016-08-06T04:22:20.066Z,62.74
2016-08-06T04:23:22.111Z,62.77
2016-08-06T04:24:38.877Z,62.77
2016-08-06T04:25:33.449Z,62.78
2016-08-06T04:26:12.620Z,62.77
2016-08-06T04:27:38.781Z,62.77
2016-08-06T04:28:40.446Z,62.80
2016-08-06T04:29:38.450Z,62.79
2016-08-06T04:30:18.465Z,62.81
2016-08-06T04:31:35.992Z,62.81
2016-08-06T04:32:30.019Z,62.81
2016-08-06T04:33:46.161Z,62.84
2016-08-06T04:34:36.093Z,62.83
2016-08-06T04:35:43.921Z,62.84
2016-08-06T04:36:38.872Z,62.83
2016-08-06T04:38:00.242Z,62.84
2016-08-06T04:38:37.980Z,62.85
2016-08-06T04:39:39.739Z,62.85
2016-08-06T04:40:27.077Z,62.84
2016-08-06T04:41:14.989Z,62.87
2016-08-06T04:42:22.082Z,62.86
2016-08-06T04:43:51.299Z,62.89
2016-08-06T04:44:32.505Z,62.87
2016-08-06T04:45:39.127Z,62.87
2016-08-06T04:46:32.538Z,62.88
2016-08-06T04:47:38.026Z,62.89
2016-08-06T04:48:43.077Z,62.88
2016-08-06T04:49:22.312Z,62.89
2016-08-06T04:50:35.952Z,62.89
2016-08-06T04:51:35.944Z,62.07
2016-08-06T04:52:44.772Z,62.67
2016-08-06T04:53:55.976Z,62.78
2016-08-06T04:54:33.290Z,62.81
2016-08-06T04:55:43.772Z,62.85
2016-08-06T04:56:32.591Z,62.85
2016-08-06T04:57:13.591Z,62.87
2016-08-06T04:58:26.201Z,62.90
2016-08-06T04:59:33.100Z,62.90
2016-08-06T05:00:40.621Z,62.91
2016-08-06T05:01:43.160Z,62.90
2016-08-06T05:02:38.632Z,62.88
2016-08-06T05:03:51.323Z,62.89
2016-08-06T05:04:38.402Z,62.89
2016-08-06T05:05:44.394Z,62.89
2016-08-06T05:06:41.079Z,62.90
2016-08-06T05:07:38.277Z,62.91
2016-08-06T05:08:39.259Z,62.92
2016-08-06T05:09:43.142Z,62.91
2016-08-06T05:10:43.765Z,62.91
2016-08-06T05:11:43.079Z,62.92
2016-08-06T05:12:25.609Z,62.93
2016-08-06T05:13:32.053Z,62.93
2016-08-06T05:14:24.018Z,62.93
2016-08-06T05:15:13.446Z,62.67
2016-08-06T05:16:29.323Z,61.95
2016-08-06T05:17:34.500Z,61.72
2016-08-06T05:18:14.459Z,61.59
2016-08-06T05:19:38.268Z,61.81
2016-08-06T05:20:32.467Z,62.52
2016-08-06T05:21:37.862Z,62.72
2016-08-06T05:22:30.612Z,62.80
2016-08-06T05:23:25.554Z,62.84
2016-08-06T05:24:48.440Z,62.88
2016-08-06T05:25:20.563Z,62.90
2016-08-06T05:26:44.391Z,62.92
2016-08-06T05:27:19.319Z,62.98
2016-08-06T05:28:27.140Z,62.92
2016-08-06T05:29:43.331Z,62.93
2016-08-06T05:30:39.333Z,62.95
2016-08-06T05:31:44.672Z,62.94
2016-08-06T05:32:45.136Z,62.93
2016-08-06T05:33:20.071Z,62.95
2016-08-06T05:34:21.039Z,62.94
2016-08-06T05:35:21.312Z,62.93
2016-08-06T05:36:37.494Z,62.93
2016-08-06T05:37:44.858Z,62.96
2016-08-06T05:38:31.511Z,62.94
2016-08-06T05:39:32.924Z,62.94
2016-08-06T05:40:27.989Z,62.93
2016-08-06T05:41:43.479Z,62.94
2016-08-06T05:42:45.521Z,62.94
2016-08-06T05:43:25.244Z,62.95
2016-08-06T05:44:20.360Z,62.95
2016-08-06T05:45:50.265Z,62.94
2016-08-06T05:46:16.020Z,62.94
2016-08-06T05:47:43.166Z,62.93
2016-08-06T05:48:36.259Z,62.93
2016-08-06T05:49:20.030Z,62.93
2016-08-06T05:50:37.331Z,62.93
2016-08-06T05:51:46.229Z,62.92
2016-08-06T05:52:44.142Z,62.92
2016-08-06T05:53:35.982Z,62.92
2016-08-06T05:54:25.464Z,62.91
2016-08-06T05:55:38.443Z,62.91
2016-08-06T05:56:34.210Z,62.92
2016-08-06T05:57:39.431Z,62.91
2016-08-06T05:58:44.148Z,62.92
2016-08-06T05:59:44.660Z,62.91
2016-08-06T06:00:42.730Z,62.93
2016-08-06T06:01:35.039Z,62.93
2016-08-06T06:02:41.110Z,62.92
2016-08-06T06:03:13.424Z,62.92
2016-08-06T06:04:14.784Z,62.93
2016-08-06T06:05:20.900Z,62.93
2016-08-06T06:06:33.743Z,62.93
2016-08-06T06:07:16.580Z,62.93
2016-08-06T06:08:19.120Z,62.94
2016-08-06T06:09:26.994Z,62.92
2016-08-06T06:10:40.311Z,62.92
2016-08-06T06:11:13.051Z,62.92
2016-08-06T06:12:38.671Z,62.93
2016-08-06T06:13:48.919Z,62.94
2016-08-06T06:14:32.050Z,62.92
2016-08-06T06:15:24.485Z,62.93
2016-08-06T06:16:38.348Z,62.94
2016-08-06T06:17:50.028Z,62.94
2016-08-06T06:18:32.300Z,62.94
2016-08-06T06:19:36.914Z,62.94
2016-08-06T06:20:37.483Z,62.94
2016-08-06T06:21:37.297Z,62.94
2016-08-06T06:22:14.232Z,62.93
2016-08-06T06:23:31.953Z,62.93
2016-08-06T06:24:37.990Z,62.93
2016-08-06T06:25:33.739Z,62.95
2016-08-06T06:26:44.730Z,62.95
2016-08-06T06:27:27.897Z,62.96
2016-08-06T06:28:43.517Z,62.95
2016-08-06T06:29:14.945Z,62.96
2016-08-06T06:30:48.933Z,62.96
2016-08-06T06:32:29.550Z,62.96
2016-08-06T06:33:36.591Z,62.96
2016-08-06T06:34:30.472Z,62.95
2016-08-06T06:35:46.351Z,62.95
2016-08-06T06:36:12.639Z,62.95
2016-08-06T06:37:42.307Z,62.95
2016-08-06T06:38:14.464Z,62.94
2016-08-06T06:39:43.548Z,62.94
2016-08-06T06:40:44.681Z,62.93
2016-08-06T06:41:31.410Z,62.94
2016-08-06T06:42:38.494Z,62.96
2016-08-06T06:43:38.368Z,62.95
2016-08-06T06:44:39.111Z,62.95
2016-08-06T06:45:38.550Z,62.95
2016-08-06T06:46:31.183Z,62.95
2016-08-06T06:47:19.700Z,62.93
2016-08-06T06:48:16.026Z,62.95
2016-08-06T06:49:30.285Z,62.97
2016-08-06T06:50:37.199Z,63.04
2016-08-06T06:51:37.188Z,63.08
2016-08-06T06:52:42.080Z,63.08
2016-08-06T06:53:30.613Z,63.11
2016-08-06T06:54:13.550Z,63.13
2016-08-06T06:55:14.490Z,63.18
2016-08-06T06:56:32.867Z,63.21
2016-08-06T06:57:25.643Z,63.31
2016-08-06T06:58:15.936Z,63.37
2016-08-06T06:59:34.069Z,63.43
2016-08-06T07:00:25.119Z,63.46
2016-08-06T07:01:28.646Z,63.48
2016-08-06T07:02:25.655Z,63.50
2016-08-06T07:03:28.986Z,63.54
2016-08-06T07:04:31.655Z,63.60
2016-08-06T07:05:37.674Z,63.62
2016-08-06T07:06:32.534Z,63.63
2016-08-06T07:07:28.509Z,63.70
2016-08-06T07:08:31.940Z,63.68
2016-08-06T07:09:38.323Z,63.71
2016-08-06T07:10:37.426Z,63.75
2016-08-06T07:11:35.031Z,63.76
2016-08-06T07:12:20.415Z,63.74
2016-08-06T07:13:26.078Z,63.77
2016-08-06T07:14:12.774Z,63.77
2016-08-06T07:15:40.400Z,63.79
2016-08-06T07:16:32.935Z,63.83
2016-08-06T07:17:14.461Z,63.88
2016-08-06T07:18:11.116Z,63.89
2016-08-06T07:19:31.547Z,63.99
2016-08-06T07:20:28.090Z,64.03
2016-08-06T07:21:34.828Z,64.13
2016-08-06T07:22:16.581Z,64.22
2016-08-06T07:23:32.439Z,64.40
2016-08-06T07:24:27.545Z,64.61
2016-08-06T07:25:42.403Z,64.69
2016-08-06T07:26:31.920Z,64.81
2016-08-06T07:27:32.227Z,64.76
2016-08-06T07:28:32.391Z,64.79
2016-08-06T07:29:37.960Z,64.91
2016-08-06T07:30:33.411Z,64.98
2016-08-06T07:31:33.762Z,65.00
2016-08-06T07:32:25.070Z,64.89
2016-08-06T07:33:33.315Z,65.03
2016-08-06T07:34:40.779Z,65.33
2016-08-06T07:35:28.445Z,65.11
2016-08-06T07:36:25.706Z,65.06
2016-08-06T07:37:20.051Z,65.04
2016-08-06T07:38:32.401Z,65.05
2016-08-06T07:39:24.778Z,65.10
2016-08-06T07:40:27.556Z,65.11
2016-08-06T07:41:30.196Z,65.05
2016-08-06T07:42:38.809Z,65.05
2016-08-06T07:43:49.881Z,65.04
2016-08-06T07:44:44.011Z,65.03
2016-08-06T07:45:13.546Z,64.98
2016-08-06T07:46:39.400Z,64.92
2016-08-06T07:47:15.566Z,64.93
2016-08-06T07:48:14.315Z,65.12
2016-08-06T07:49:39.531Z,65.20
2016-08-06T07:50:25.035Z,65.10
2016-08-06T07:51:37.470Z,64.83
2016-08-06T07:52:26.723Z,64.75
2016-08-06T07:53:38.052Z,64.86
2016-08-06T07:54:14.207Z,64.87
2016-08-06T07:55:13.037Z,64.90
2016-08-06T07:56:39.682Z,64.87
2016-08-06T07:57:34.435Z,64.88
2016-08-06T07:58:42.274Z,64.85
2016-08-06T07:59:37.335Z,64.84
2016-08-06T08:00:36.796Z,64.74
2016-08-06T08:01:32.255Z,64.45
2016-08-06T08:02:23.498Z,64.67
2016-08-06T08:03:13.069Z,64.74
2016-08-06T08:04:33.873Z,64.70
2016-08-06T08:05:37.558Z,64.88
2016-08-06T08:06:44.470Z,64.91
2016-08-06T08:07:13.529Z,64.82
2016-08-06T08:08:52.201Z,64.91
2016-08-06T08:09:24.934Z,64.90
2016-08-06T08:10:26.781Z,64.77
2016-08-06T08:11:38.464Z,64.38
2016-08-06T08:12:30.200Z,61.40
2016-08-06T08:13:37.723Z,61.38
2016-08-06T08:14:29.260Z,60.08
2016-08-06T08:15:29.219Z,60.13
2016-08-06T08:16:38.983Z,59.70
2016-08-06T08:17:43.990Z,60.03
2016-08-06T08:18:32.262Z,60.10
2016-08-06T08:19:36.490Z,60.09
2016-08-06T08:20:45.268Z,60.40
2016-08-06T08:21:31.666Z,60.51
2016-08-06T08:22:33.377Z,61.00
2016-08-06T08:23:38.238Z,60.57
2016-08-06T08:24:20.958Z,60.72
2016-08-06T08:25:23.964Z,61.04
2016-08-06T08:26:23.075Z,60.93
2016-08-06T08:27:33.929Z,60.99
2016-08-06T08:28:19.612Z,61.30
2016-08-06T08:29:43.763Z,61.36
2016-08-06T08:30:41.610Z,61.21
2016-08-06T08:31:40.733Z,61.12
2016-08-06T08:32:38.615Z,60.83
2016-08-06T08:33:43.435Z,60.60
2016-08-06T08:34:53.953Z,60.56
2016-08-06T08:35:37.772Z,60.56
2016-08-06T08:36:45.985Z,60.15
2016-08-06T08:37:44.614Z,60.15
2016-08-06T08:38:43.385Z,60.24
2016-08-06T08:39:45.946Z,60.17
2016-08-06T08:40:44.807Z,59.77
2016-08-06T08:41:39.051Z,59.99
2016-08-06T08:42:45.791Z,60.40
2016-08-06T08:43:17.208Z,60.50
2016-08-06T08:44:33.357Z,60.74
2016-08-06T08:45:40.582Z,60.50
2016-08-06T08:46:43.939Z,60.46
2016-08-06T08:47:38.985Z,60.32
2016-08-06T08:48:48.271Z,60.18
2016-08-06T08:49:33.919Z,60.26
2016-08-06T08:50:41.499Z,60.08
2016-08-06T08:51:44.632Z,59.71
2016-08-06T08:52:38.621Z,59.98
2016-08-06T08:53:23.303Z,60.09
2016-08-06T08:54:33.107Z,60.07
2016-08-06T08:55:50.765Z,60.25
2016-08-06T08:56:39.470Z,60.29
2016-08-06T08:57:47.205Z,60.26
2016-08-06T08:58:44.303Z,60.46
2016-08-06T08:59:42.834Z,60.41
2016-08-06T09:00:25.921Z,60.40
2016-08-06T09:01:40.364Z,60.39
2016-08-06T09:02:45.600Z,60.34
2016-08-06T09:03:28.106Z,60.44
2016-08-06T09:04:34.925Z,60.43
2016-08-06T09:05:44.542Z,60.22
2016-08-06T09:06:25.810Z,60.44
2016-08-06T09:07:45.041Z,60.54
2016-08-06T09:08:32.772Z,60.09
2016-08-06T09:09:45.884Z,60.27
2016-08-06T09:10:18.718Z,59.91
2016-08-06T09:11:38.234Z,60.05
2016-08-06T09:12:27.921Z,60.23
2016-08-06T09:13:32.843Z,60.23
2016-08-06T09:14:43.830Z,60.61
2016-08-06T09:15:41.664Z,60.40
2016-08-06T09:16:28.756Z,60.08
2016-08-06T09:17:32.768Z,60.31
2016-08-06T09:18:39.114Z,60.27
2016-08-06T09:19:33.005Z,60.26
2016-08-06T09:20:38.597Z,60.20
2016-08-06T09:21:33.157Z,61.02
2016-08-06T09:22:34.748Z,60.98
2016-08-06T09:23:37.806Z,61.16
2016-08-06T09:24:24.189Z,60.83
2016-08-06T09:25:27.188Z,60.78
2016-08-06T09:26:28.386Z,60.69
2016-08-06T09:27:30.811Z,60.83
2016-08-06T09:28:37.186Z,61.00
2016-08-06T09:29:49.895Z,60.94
2016-08-06T09:30:30.256Z,61.00
2016-08-06T09:31:38.728Z,61.01
2016-08-06T09:32:21.700Z,60.93
2016-08-06T09:33:28.646Z,60.93
2016-08-06T09:34:26.110Z,60.96
2016-08-06T09:35:38.566Z,61.15
2016-08-06T09:36:28.485Z,60.96
2016-08-06T09:37:39.237Z,61.19
2016-08-06T09:38:34.448Z,61.06
2016-08-06T09:39:34.093Z,61.13
2016-08-06T09:40:27.337Z,61.03
2016-08-06T09:41:20.672Z,61.00
2016-08-06T09:42:26.398Z,60.99
2016-08-06T09:43:32.362Z,61.10
2016-08-06T09:44:37.050Z,61.08
2016-08-06T09:45:31.767Z,61.12
2016-08-06T09:46:38.619Z,61.05
2016-08-06T09:47:45.021Z,61.09
2016-08-06T09:48:36.717Z,61.11
2016-08-06T09:49:35.841Z,61.17
2016-08-06T09:50:27.505Z,61.14
2016-08-06T09:51:31.966Z,61.15
2016-08-06T09:52:42.141Z,61.17
2016-08-06T09:53:38.862Z,61.17
2016-08-06T09:54:32.836Z,61.15
2016-08-06T09:55:22.664Z,61.13
2016-08-06T09:56:33.043Z,61.14
2016-08-06T09:57:36.350Z,61.12
2016-08-06T09:58:20.349Z,61.13
2016-08-06T09:59:15.402Z,61.12
2016-08-06T10:00:39.373Z,61.10
2016-08-06T10:01:30.845Z,61.09
2016-08-06T10:03:34.133Z,61.10
2016-08-06T10:04:38.318Z,61.04
2016-08-06T10:05:15.530Z,61.01
2016-08-06T10:06:28.432Z,61.09
2016-08-06T10:07:26.245Z,61.07
2016-08-06T10:08:27.366Z,61.11
2016-08-06T10:09:32.150Z,61.07
2016-08-06T10:10:31.947Z,61.12
2016-08-06T10:11:37.418Z,61.10
2016-08-06T10:12:33.936Z,61.06
2016-08-06T10:13:31.091Z,61.10
2016-08-06T10:14:12.408Z,61.11
2016-08-06T10:15:43.713Z,61.12
2016-08-06T10:16:45.972Z,61.26
2016-08-06T10:18:26.963Z,61.44
2016-08-06T10:19:28.938Z,61.47
2016-08-06T10:20:22.915Z,61.55
2016-08-06T10:21:21.080Z,61.68
2016-08-06T10:22:26.217Z,61.80
2016-08-06T10:23:24.230Z,62.01
2016-08-06T10:24:28.724Z,62.08
2016-08-06T10:25:39.576Z,62.14
2016-08-06T10:26:25.599Z,62.20
2016-08-06T10:27:25.198Z,62.28
2016-08-06T10:28:38.935Z,62.30
2016-08-06T10:29:33.567Z,61.43
2016-08-06T10:30:27.018Z,61.20
2016-08-06T10:31:38.346Z,61.11
2016-08-06T10:32:24.286Z,61.06
2016-08-06T10:33:13.252Z,61.05
2016-08-06T10:34:15.163Z,61.09
2016-08-06T10:35:18.833Z,61.03
2016-08-06T10:36:15.090Z,61.39
2016-08-06T10:37:36.843Z,62.01
2016-08-06T10:38:34.113Z,62.15
2016-08-06T10:39:14.168Z,62.21
2016-08-06T10:40:16.151Z,62.27
2016-08-06T10:41:34.143Z,62.29
2016-08-06T10:42:32.595Z,62.31
2016-08-06T10:43:22.259Z,62.31
2016-08-06T10:44:21.990Z,62.30
2016-08-06T10:45:34.672Z,62.31
2016-08-06T10:46:22.224Z,62.32
2016-08-06T10:47:21.803Z,62.33
2016-08-06T10:48:22.559Z,62.33
2016-08-06T10:49:37.463Z,62.34
2016-08-06T10:50:26.577Z,62.34
2016-08-06T10:51:33.597Z,62.35
2016-08-06T10:52:11.658Z,62.34
2016-08-06T10:53:23.538Z,62.34
2016-08-06T10:54:14.600Z,62.32
2016-08-06T10:55:30.340Z,62.34
2016-08-06T10:56:37.683Z,62.35
2016-08-06T10:57:31.832Z,62.37
2016-08-06T10:58:26.297Z,62.37
2016-08-06T10:59:30.277Z,62.38
2016-08-06T11:00:33.353Z,62.40
2016-08-06T11:01:16.735Z,62.44
2016-08-06T11:02:12.930Z,62.39
2016-08-06T11:03:33.291Z,62.40
2016-08-06T11:04:23.215Z,62.40
2016-08-06T11:05:25.191Z,62.40
2016-08-06T11:06:37.626Z,62.44
2016-08-06T11:07:32.094Z,62.44
2016-08-06T11:08:15.780Z,62.31
2016-08-06T11:09:23.584Z,61.47
2016-08-06T11:10:36.760Z,61.28
2016-08-06T11:11:23.185Z,61.16
2016-08-06T11:12:14.299Z,61.45
2016-08-06T11:13:34.393Z,62.08
2016-08-06T11:14:27.100Z,62.23
2016-08-06T11:15:34.028Z,62.32
2016-08-06T11:16:29.038Z,62.34
2016-08-06T11:17:23.231Z,62.41
2016-08-06T11:18:28.588Z,62.41
2016-08-06T11:19:36.947Z,62.39
2016-08-06T11:20:29.948Z,62.42
2016-08-06T11:21:32.288Z,62.40
2016-08-06T11:22:24.383Z,62.40
2016-08-06T11:23:25.872Z,62.40
2016-08-06T11:24:16.859Z,62.40
2016-08-06T11:25:16.125Z,62.40
2016-08-06T11:26:14.596Z,62.37
2016-08-06T11:27:27.892Z,62.41
2016-08-06T11:28:21.695Z,62.28
2016-08-06T11:29:31.208Z,62.39
2016-08-06T11:30:31.828Z,62.35
2016-08-06T11:31:34.814Z,62.35
2016-08-06T11:32:32.628Z,62.35
2016-08-06T11:33:32.181Z,62.34
2016-08-06T11:34:36.904Z,62.33
2016-08-06T11:35:30.255Z,62.31
2016-08-06T11:36:25.119Z,62.29
2016-08-06T11:37:21.053Z,62.29
2016-08-06T11:38:12.333Z,62.28
2016-08-06T11:39:27.243Z,62.28
2016-08-06T11:40:44.641Z,62.27
2016-08-06T11:41:44.419Z,62.25
2016-08-06T11:42:24.825Z,62.27
2016-08-06T11:43:24.856Z,62.26
2016-08-06T11:44:21.222Z,62.25
2016-08-06T11:45:14.911Z,62.22
2016-08-06T11:46:38.090Z,62.25
2016-08-06T11:47:31.308Z,62.25
2016-08-06T11:48:23.768Z,62.25
2016-08-06T11:49:13.892Z,62.22
2016-08-06T11:50:26.759Z,62.23
2016-08-06T11:51:19.480Z,62.19
2016-08-06T11:52:27.474Z,62.22
2016-08-06T11:53:32.961Z,62.22
2016-08-06T11:54:26.819Z,62.18
2016-08-06T11:55:24.088Z,62.20
2016-08-06T11:56:27.960Z,62.19
2016-08-06T11:57:37.903Z,62.20
2016-08-06T11:58:34.208Z,62.16
2016-08-06T11:59:32.509Z,62.15
2016-08-06T12:00:26.006Z,62.16
2016-08-06T12:01:27.195Z,62.12
2016-08-06T12:02:27.787Z,62.17
2016-08-06T12:03:16.465Z,62.11
2016-08-06T12:04:23.179Z,62.14
2016-08-06T12:05:38.600Z,62.11
2016-08-06T12:06:13.329Z,62.15
2016-08-06T12:07:32.712Z,62.13
2016-08-06T12:08:35.716Z,62.08
2016-08-06T12:09:30.168Z,62.13
2016-08-06T12:10:44.901Z,62.12
2016-08-06T12:11:26.100Z,62.11
2016-08-06T12:12:27.453Z,62.07
2016-08-06T12:13:24.527Z,62.08
2016-08-06T12:14:26.725Z,62.11
2016-08-06T12:15:27.062Z,62.11
2016-08-06T12:16:39.063Z,62.10
2016-08-06T12:17:40.110Z,62.10
2016-08-06T12:18:23.561Z,62.08
2016-08-06T12:19:26.159Z,62.02
2016-08-06T12:20:37.983Z,62.11
2016-08-06T12:21:22.244Z,62.05
2016-08-06T12:22:34.043Z,62.08
2016-08-06T12:23:28.301Z,62.06
2016-08-06T12:24:44.442Z,62.11
2016-08-06T12:25:24.411Z,62.10
2016-08-06T12:26:36.783Z,62.04
2016-08-06T12:27:46.429Z,62.06
2016-08-06T12:28:16.781Z,62.11
2016-08-06T12:29:33.669Z,62.09
2016-08-06T12:30:38.134Z,62.08
2016-08-06T12:31:12.431Z,62.12
2016-08-06T12:32:38.438Z,62.08
2016-08-06T12:33:38.669Z,62.07
2016-08-06T12:34:42.057Z,62.09
2016-08-06T12:35:30.671Z,62.10
2016-08-06T12:36:41.036Z,62.06
2016-08-06T12:37:31.374Z,62.09
2016-08-06T12:38:16.841Z,62.07
2016-08-06T12:39:32.802Z,62.05
2016-08-06T12:40:16.067Z,61.92
2016-08-06T12:41:21.150Z,61.06
2016-08-06T12:42:22.794Z,60.88
2016-08-06T12:43:27.705Z,60.77
2016-08-06T12:44:15.842Z,60.72
2016-08-06T12:45:13.985Z,60.70
2016-08-06T12:46:26.901Z,60.75
2016-08-06T12:47:25.956Z,60.74
2016-08-06T12:48:25.411Z,60.66
2016-08-06T12:49:15.243Z,61.66
2016-08-06T12:50:20.741Z,61.86
2016-08-06T12:51:25.930Z,60.92
2016-08-06T12:52:33.604Z,60.81
2016-08-06T12:53:22.708Z,60.72
2016-08-06T12:54:27.939Z,60.70
2016-08-06T12:55:28.322Z,60.89
2016-08-06T12:56:27.269Z,61.61
2016-08-06T12:57:26.567Z,61.85
2016-08-06T12:58:15.901Z,61.94